createdAt,value
2023-01-22T00:01:14.477Z,100.00
2023-01-22T00:03:43.039Z,100.00
2023-01-22T00:06:11.691Z,100.00
2023-01-22T00:08:38.740Z,100.00
2023-01-22T00:11:08.371Z,100.00
2023-01-22T00:13:38.796Z,100.00
2023-01-22T00:16:06.311Z,100.00
2023-01-22T00:18:33.811Z,100.00
2023-01-22T00:21:00.854Z,100.00
2023-01-22T00:23:27.823Z,100.00
2023-01-22T00:26:04.859Z,100.00
2023-01-22T00:28:32.233Z,100.00
2023-01-22T00:31:00.873Z,100.00
2023-01-22T00:33:28.368Z,100.00
2023-01-22T00:35:55.359Z,100.00
2023-01-22T00:38:22.112Z,100.00
2023-01-22T00:41:03.354Z,100.00
2023-01-22T00:43:31.343Z,100.00
2023-01-22T00:45:58.424Z,100.00
2023-01-22T00:48:26.471Z,100.00
2023-01-22T00:50:53.759Z,100.00
2023-01-22T00:53:20.833Z,100.00
2023-01-22T00:55:55.003Z,100.00
2023-01-22T00:58:22.245Z,100.00
2023-01-22T01:00:49.676Z,100.00
2023-01-22T01:03:32.412Z,100.00
2023-01-22T01:06:18.337Z,100.00
2023-01-22T01:08:46.372Z,100.00
2023-01-22T01:11:21.888Z,100.00
2023-01-22T01:13:53.298Z,100.00
2023-01-22T01:16:22.672Z,100.00
2023-01-22T01:18:50.069Z,100.00
2023-01-22T01:21:18.334Z,100.00
2023-01-22T01:23:46.189Z,100.00
2023-01-22T01:26:16.471Z,100.00
2023-01-22T01:28:45.841Z,100.00
2023-01-22T01:31:15.618Z,100.00
2023-01-22T01:33:43.145Z,100.00
2023-01-22T01:36:17.247Z,100.00
2023-01-22T01:38:47.546Z,100.00
2023-01-22T01:41:18.211Z,100.00
2023-01-22T01:43:45.390Z,100.00
2023-01-22T01:46:23.124Z,100.00
2023-01-22T01:48:53.726Z,100.00
2023-01-22T01:51:27.955Z,100.00
2023-01-22T01:53:56.269Z,100.00
2023-01-22T01:56:30.905Z,100.00
2023-01-22T01:59:04.033Z,100.00
2023-01-22T02:01:32.404Z,100.00
2023-01-22T02:04:00.447Z,100.00
2023-01-22T02:06:27.739Z,100.00
2023-01-22T02:08:55.901Z,100.00
2023-01-22T02:11:25.836Z,100.00
2023-01-22T02:14:17.320Z,100.00
2023-01-22T02:16:45.221Z,100.00
2023-01-22T02:19:13.084Z,100.00
2023-01-22T02:21:44.822Z,100.00
2023-01-22T02:24:15.808Z,100.00
2023-01-22T02:26:45.019Z,100.00
2023-01-22T02:29:14.344Z,100.00
2023-01-22T02:31:42.290Z,100.00
2023-01-22T02:34:29.164Z,100.00
2023-01-22T02:36:56.755Z,100.00
2023-01-22T02:39:23.982Z,100.00
2023-01-22T02:41:53.658Z,100.00
2023-01-22T02:44:20.870Z,100.00
2023-01-22T02:46:47.919Z,100.00
2023-01-22T02:49:17.655Z,100.00
2023-01-22T02:51:45.236Z,100.00
2023-01-22T02:54:12.177Z,100.00
2023-01-22T02:56:39.147Z,100.00
2023-01-22T02:59:06.090Z,100.00
2023-01-22T03:01:33.292Z,100.00
2023-01-22T03:04:13.554Z,100.00
2023-01-22T03:06:43.598Z,100.00
2023-01-22T03:09:13.646Z,100.00
2023-01-22T03:11:42.388Z,100.00
2023-01-22T03:14:28.326Z,100.00
2023-01-22T03:17:14.972Z,100.00
2023-01-22T03:20:00.717Z,100.00
2023-01-22T03:22:28.732Z,100.00
2023-01-22T03:24:58.657Z,100.00
2023-01-22T03:27:27.184Z,100.00
2023-01-22T03:29:54.356Z,100.00
2023-01-22T03:32:21.693Z,100.00
2023-01-22T03:34:48.860Z,100.00
2023-01-22T03:37:16.866Z,100.00
2023-01-22T03:39:43.671Z,100.00
2023-01-22T03:42:10.726Z,100.00
2023-01-22T03:44:37.893Z,100.00
2023-01-22T03:47:08.222Z,100.00
2023-01-22T03:49:35.040Z,100.00
2023-01-22T03:52:05.062Z,100.00
2023-01-22T03:54:35.119Z,100.00
2023-01-22T03:57:09.361Z,100.00
2023-01-22T03:59:36.300Z,100.00
2023-01-22T04:02:04.349Z,100.00
2023-01-22T04:04:33.648Z,100.00
2023-01-22T04:07:00.339Z,100.00
2023-01-22T04:09:27.177Z,100.00
2023-01-22T04:11:54.181Z,100.00
2023-01-22T04:14:21.050Z,100.00
2023-01-22T04:16:48.201Z,100.00
2023-01-22T04:19:14.955Z,100.00
2023-01-22T04:21:41.742Z,100.00
2023-01-22T04:24:08.666Z,100.00
2023-01-22T04:26:35.745Z,100.00
2023-01-22T04:29:02.630Z,100.00
2023-01-22T04:31:29.604Z,100.00
2023-01-22T04:33:56.679Z,100.00
2023-01-22T04:36:23.496Z,100.00
2023-01-22T04:38:53.319Z,100.00
2023-01-22T04:41:20.461Z,100.00
2023-01-22T04:43:47.262Z,100.00
2023-01-22T04:46:14.165Z,100.00
2023-01-22T04:48:41.076Z,100.00
2023-01-22T04:51:08.061Z,100.00
2023-01-22T04:53:35.083Z,100.00
2023-01-22T04:56:01.883Z,100.00
2023-01-22T04:58:28.617Z,100.00
2023-01-22T05:00:56.745Z,100.00
2023-01-22T05:03:23.978Z,100.00
2023-01-22T05:05:50.861Z,100.00
2023-01-22T05:08:17.738Z,100.00
2023-01-22T05:10:44.738Z,100.00
2023-01-22T05:13:11.619Z,100.00
2023-01-22T05:15:38.438Z,100.00
2023-01-22T05:18:05.322Z,100.00
2023-01-22T05:20:32.115Z,100.00
2023-01-22T05:22:58.958Z,100.00
2023-01-22T05:25:25.850Z,100.00
2023-01-22T05:27:52.730Z,100.00
2023-01-22T05:30:19.914Z,100.00
2023-01-22T05:32:46.777Z,100.00
2023-01-22T05:35:13.522Z,100.00
2023-01-22T05:37:40.299Z,100.00
2023-01-22T05:40:08.448Z,100.00
2023-01-22T05:42:35.291Z,100.00
2023-01-22T05:45:02.004Z,100.00
2023-01-22T05:47:30.438Z,100.00
2023-01-22T05:49:57.227Z,100.00
2023-01-22T05:52:24.008Z,100.00
2023-01-22T05:54:53.852Z,100.00
2023-01-22T05:57:20.902Z,100.00
2023-01-22T05:59:47.983Z,100.00
2023-01-22T06:02:19.797Z,100.00
2023-01-22T06:04:46.712Z,100.00
2023-01-22T06:07:13.754Z,100.00
2023-01-22T06:09:43.117Z,100.00
2023-01-22T06:12:09.938Z,100.00
2023-01-22T06:14:36.628Z,100.00
2023-01-22T06:17:03.654Z,100.00
2023-01-22T06:19:30.417Z,100.00
2023-01-22T06:21:57.219Z,100.00
2023-01-22T06:24:24.047Z,100.00
2023-01-22T06:26:51.086Z,100.00
2023-01-22T06:29:18.031Z,100.00
2023-01-22T06:31:44.954Z,100.00
2023-01-22T06:34:15.185Z,100.00
2023-01-22T06:36:45.850Z,100.00
2023-01-22T06:39:12.651Z,100.00
2023-01-22T06:41:39.429Z,100.00
2023-01-22T06:44:06.780Z,100.00
2023-01-22T06:46:33.762Z,100.00
2023-01-22T06:49:01.742Z,100.00
2023-01-22T06:51:30.348Z,100.00
2023-01-22T06:53:57.398Z,100.00
2023-01-22T06:56:26.969Z,100.00
2023-01-22T06:58:53.811Z,100.00
2023-01-22T07:01:25.064Z,100.00
2023-01-22T07:03:52.869Z,100.00
2023-01-22T07:06:20.808Z,100.00
2023-01-22T07:08:47.888Z,100.00
2023-01-22T07:11:26.719Z,100.00
2023-01-22T07:13:53.543Z,100.00
2023-01-22T07:16:20.928Z,100.00
2023-01-22T07:18:52.048Z,100.00
2023-01-22T07:21:18.859Z,100.00
2023-01-22T07:23:45.639Z,100.00
2023-01-22T07:26:12.495Z,100.00
2023-01-22T07:28:39.467Z,100.00
2023-01-22T07:31:10.601Z,100.00
2023-01-22T07:33:52.639Z,100.00
2023-01-22T07:39:04.178Z,100.00
2023-01-22T07:41:30.966Z,100.00
2023-01-22T07:43:59.727Z,100.00
2023-01-22T07:46:33.267Z,100.00
2023-01-22T07:49:00.096Z,100.00
2023-01-22T07:51:26.924Z,100.00
2023-01-22T07:53:53.919Z,100.00
2023-01-22T07:56:20.676Z,100.00
2023-01-22T07:58:47.847Z,100.00
2023-01-22T08:04:05.073Z,100.00
2023-01-22T08:06:31.912Z,100.00
2023-01-22T08:08:59.631Z,100.00
2023-01-22T08:11:28.049Z,100.00
2023-01-22T08:13:55.192Z,100.00
2023-01-22T08:16:28.850Z,100.00
2023-01-22T08:18:55.759Z,100.00
2023-01-22T08:21:22.555Z,100.00
2023-01-22T08:23:49.522Z,100.00
2023-01-22T08:26:16.766Z,100.00
2023-01-22T08:28:43.768Z,100.00
2023-01-22T08:31:26.973Z,100.00
2023-01-22T08:33:58.208Z,100.00
2023-01-22T08:36:25.272Z,100.00
2023-01-22T08:38:52.305Z,100.00
2023-01-22T08:41:19.099Z,100.00
2023-01-22T08:43:46.354Z,100.00
2023-01-22T08:46:16.199Z,100.00
2023-01-22T08:48:46.067Z,100.00
2023-01-22T08:51:15.494Z,100.00
2023-01-22T08:53:42.382Z,100.00
2023-01-22T08:56:09.463Z,100.00
2023-01-22T08:58:36.262Z,100.00
2023-01-22T09:01:04.906Z,100.00
2023-01-22T09:03:35.464Z,100.00
2023-01-22T09:06:03.246Z,100.00
2023-01-22T09:08:31.047Z,100.00
2023-01-22T09:10:57.941Z,100.00
2023-01-22T09:13:24.727Z,100.00
2023-01-22T09:15:51.498Z,100.00
2023-01-22T09:18:18.263Z,100.00
2023-01-22T09:20:45.749Z,100.00
2023-01-22T09:23:14.251Z,100.00
2023-01-22T09:25:43.011Z,100.00
2023-01-22T09:28:12.313Z,100.00
2023-01-22T09:30:41.888Z,100.00
2023-01-22T09:33:09.307Z,100.00
2023-01-22T09:35:36.012Z,100.00
2023-01-22T09:38:03.684Z,100.00
2023-01-22T09:40:45.074Z,100.00
2023-01-22T09:43:25.970Z,100.00
2023-01-22T09:45:56.422Z,100.00
2023-01-22T09:48:29.322Z,100.00
2023-01-22T09:50:56.351Z,100.00
2023-01-22T09:53:23.403Z,100.00
2023-01-22T09:55:54.798Z,100.00
2023-01-22T09:58:23.395Z,100.00
2023-01-22T10:01:00.407Z,100.00
2023-01-22T10:03:30.509Z,100.00
2023-01-22T10:06:02.157Z,100.00
2023-01-22T10:08:53.669Z,100.00
2023-01-22T10:11:24.908Z,100.00
2023-01-22T10:13:56.501Z,100.00
2023-01-22T10:16:23.497Z,100.00
2023-01-22T10:19:27.828Z,100.00
2023-01-22T10:22:05.356Z,100.00
2023-01-22T10:24:34.640Z,100.00
2023-01-22T10:27:12.224Z,100.00
2023-01-22T10:29:42.139Z,100.00
2023-01-22T10:32:30.423Z,100.00
2023-01-22T10:35:19.473Z,100.00
2023-01-22T10:37:51.951Z,100.00
2023-01-22T10:40:25.882Z,100.00
2023-01-22T10:43:01.961Z,100.00
2023-01-22T10:45:33.558Z,100.00
2023-01-22T10:48:18.115Z,100.00
2023-01-22T10:50:46.061Z,100.00
2023-01-22T10:53:25.411Z,100.00
2023-01-22T10:55:58.745Z,100.00
2023-01-22T10:58:31.404Z,100.00
2023-01-22T11:01:09.786Z,100.00
2023-01-22T11:03:41.725Z,100.00
2023-01-22T11:06:22.138Z,100.00
2023-01-22T11:08:55.917Z,100.00
2023-01-22T11:11:35.398Z,100.00
2023-01-22T11:14:21.780Z,100.00
2023-01-22T11:17:15.308Z,100.00
2023-01-22T11:19:48.689Z,100.00
2023-01-22T11:22:33.649Z,100.00
2023-01-22T11:25:01.056Z,100.00
2023-01-22T11:27:43.582Z,100.00
2023-01-22T11:30:21.928Z,100.00
2023-01-22T11:32:50.405Z,100.00
2023-01-22T11:35:36.620Z,100.00
2023-01-22T11:38:28.752Z,100.00
2023-01-22T11:41:17.778Z,100.00
2023-01-22T11:44:20.154Z,100.00
2023-01-22T11:47:09.138Z,100.00
2023-01-22T11:49:46.296Z,100.00
2023-01-22T11:53:00.139Z,100.00
2023-01-22T11:56:03.398Z,100.00
2023-01-22T11:58:52.400Z,100.00
2023-01-22T12:01:38.952Z,100.00
2023-01-22T12:04:11.875Z,100.00
2023-01-22T12:07:08.120Z,100.00
2023-01-22T12:09:59.784Z,100.00
2023-01-22T12:12:42.535Z,100.00
2023-01-22T12:15:30.722Z,100.00
2023-01-22T12:18:31.209Z,100.00
2023-01-22T12:21:16.947Z,100.00
2023-01-22T12:23:54.784Z,100.00
2023-01-22T12:26:26.752Z,97.65
2023-01-22T12:28:53.489Z,98.85
2023-01-22T12:31:31.310Z,99.98
2023-01-22T12:34:03.648Z,100.00
2023-01-22T12:36:33.201Z,99.59
2023-01-22T12:39:03.785Z,99.03
2023-01-22T12:41:58.121Z,98.14
2023-01-22T12:44:48.227Z,98.82
2023-01-22T12:47:25.802Z,98.46
2023-01-22T12:49:53.717Z,94.99
2023-01-22T12:52:35.529Z,94.58
2023-01-22T12:55:21.906Z,94.56
2023-01-22T12:57:48.853Z,94.29
2023-01-22T13:00:34.983Z,90.85
2023-01-22T13:03:30.983Z,90.96
2023-01-22T13:05:59.983Z,87.92
2023-01-22T13:08:37.627Z,87.54
2023-01-22T13:11:10.884Z,86.30
2023-01-22T13:13:38.002Z,87.54
2023-01-22T13:16:34.253Z,86.21
2023-01-22T13:19:54.549Z,85.77
2023-01-22T13:22:27.171Z,81.89
2023-01-22T13:24:56.904Z,78.32
2023-01-22T13:27:30.740Z,80.21
2023-01-22T13:30:16.367Z,78.91
2023-01-22T13:32:44.682Z,77.19
2023-01-22T13:35:17.711Z,76.06
2023-01-22T13:37:51.454Z,74.65
2023-01-22T13:40:46.274Z,74.98
2023-01-22T13:43:31.962Z,75.09
2023-01-22T13:48:49.432Z,73.73
2023-01-22T13:51:19.709Z,75.06
2023-01-22T13:53:55.669Z,76.14
2023-01-22T13:56:46.518Z,77.26
2023-01-22T13:59:31.718Z,76.87
2023-01-22T14:01:58.653Z,71.40
2023-01-22T14:04:37.472Z,64.19
2023-01-22T14:07:05.903Z,62.78
2023-01-22T14:09:38.057Z,61.72
2023-01-22T14:12:21.673Z,61.57
2023-01-22T14:14:54.613Z,61.49
2023-01-22T14:17:30.289Z,62.54
2023-01-22T14:19:58.393Z,62.83
2023-01-22T14:22:28.355Z,63.62
2023-01-22T14:25:01.053Z,65.12
2023-01-22T14:27:54.432Z,66.05
2023-01-22T14:30:22.918Z,66.91
2023-01-22T14:32:49.913Z,67.21
2023-01-22T14:35:19.813Z,69.46
2023-01-22T14:37:47.392Z,69.50
2023-01-22T14:43:14.645Z,69.29
2023-01-22T14:45:43.838Z,69.33
2023-01-22T14:48:16.487Z,69.35
2023-01-22T14:50:43.987Z,70.12
2023-01-22T14:53:11.551Z,69.48
2023-01-22T14:55:38.930Z,70.04
2023-01-22T14:58:06.390Z,69.58
2023-01-22T15:00:33.521Z,69.89
2023-01-22T15:03:02.552Z,69.11
2023-01-22T15:05:29.694Z,68.52
2023-01-22T15:07:56.713Z,68.66
2023-01-22T15:10:23.876Z,68.81
2023-01-22T15:12:53.040Z,68.46
2023-01-22T15:15:25.463Z,70.87
2023-01-22T15:17:53.993Z,73.89
2023-01-22T15:20:23.373Z,76.72
2023-01-22T15:22:50.969Z,79.19
2023-01-22T15:25:18.223Z,77.66
2023-01-22T15:27:45.369Z,77.63
2023-01-22T15:30:13.589Z,77.08
2023-01-22T15:32:40.412Z,78.43
2023-01-22T15:35:07.435Z,77.90
2023-01-22T15:37:40.818Z,79.00
2023-01-22T15:40:10.186Z,80.84
2023-01-22T15:42:37.034Z,83.60
2023-01-22T15:45:05.457Z,84.57
2023-01-22T15:47:33.588Z,85.18
2023-01-22T15:50:00.526Z,86.56
2023-01-22T15:52:27.339Z,88.23
2023-01-22T15:54:54.303Z,89.72
2023-01-22T15:57:21.314Z,89.56
2023-01-22T15:59:48.273Z,89.38
2023-01-22T16:02:15.228Z,89.55
2023-01-22T16:04:42.164Z,86.90
2023-01-22T16:07:09.178Z,86.17
2023-01-22T16:09:35.985Z,86.13
2023-01-22T16:12:06.143Z,88.66
2023-01-22T16:14:33.115Z,94.24
2023-01-22T16:17:00.747Z,97.93
2023-01-22T16:19:36.356Z,100.00
2023-01-22T16:22:03.409Z,100.00
2023-01-22T16:24:30.247Z,100.00
2023-01-22T16:26:58.184Z,100.00
2023-01-22T16:29:25.437Z,100.00
2023-01-22T16:31:53.990Z,100.00
2023-01-22T16:34:22.456Z,100.00
2023-01-22T16:36:55.305Z,100.00
2023-01-22T16:39:23.906Z,100.00
2023-01-22T16:41:51.962Z,100.00
2023-01-22T16:44:30.886Z,100.00
2023-01-22T16:47:00.739Z,100.00
2023-01-22T16:49:33.066Z,100.00
2023-01-22T16:52:21.395Z,100.00
2023-01-22T16:54:49.833Z,100.00
2023-01-22T16:57:16.745Z,100.00
2023-01-22T16:59:43.874Z,100.00
2023-01-22T17:04:59.477Z,100.00
2023-01-22T17:07:33.594Z,100.00
2023-01-22T17:10:01.209Z,100.00
2023-01-22T17:12:28.080Z,100.00
2023-01-22T17:14:54.834Z,100.00
2023-01-22T17:17:27.721Z,100.00
2023-01-22T17:19:54.802Z,100.00
2023-01-22T17:22:34.961Z,100.00
2023-01-22T17:25:02.138Z,100.00
2023-01-22T17:27:31.404Z,100.00
2023-01-22T17:29:58.271Z,100.00
2023-01-22T17:32:26.739Z,100.00
2023-01-22T17:34:53.449Z,100.00
2023-01-22T17:37:21.792Z,100.00
2023-01-22T17:39:54.948Z,100.00
2023-01-22T17:42:23.057Z,100.00
2023-01-22T17:44:51.374Z,100.00
2023-01-22T17:47:18.938Z,100.00
2023-01-22T17:49:47.431Z,100.00
2023-01-22T17:52:41.847Z,100.00
2023-01-22T17:55:09.171Z,100.00
2023-01-22T17:57:36.049Z,100.00
2023-01-22T18:00:04.143Z,100.00
2023-01-22T18:02:31.140Z,100.00
2023-01-22T18:05:02.532Z,100.00
2023-01-22T18:07:29.607Z,100.00
2023-01-22T18:09:56.652Z,100.00
2023-01-22T18:12:23.645Z,100.00
2023-01-22T18:14:53.193Z,100.00
2023-01-22T18:17:19.861Z,100.00
2023-01-22T18:19:46.616Z,100.00
2023-01-22T18:22:15.543Z,100.00
2023-01-22T18:24:44.792Z,100.00
2023-01-22T18:27:12.197Z,100.00
2023-01-22T18:29:43.609Z,100.00
2023-01-22T18:32:10.411Z,100.00
2023-01-22T18:34:37.206Z,100.00
2023-01-22T18:37:04.198Z,100.00
2023-01-22T18:39:53.268Z,100.00
2023-01-22T18:42:21.490Z,100.00
2023-01-22T18:45:00.142Z,100.00
2023-01-22T18:47:27.115Z,100.00
2023-01-22T18:49:53.968Z,100.00
2023-01-22T18:52:23.353Z,100.00
2023-01-22T18:54:50.444Z,100.00
2023-01-22T18:57:17.825Z,100.00
2023-01-22T18:59:44.819Z,100.00
2023-01-22T19:02:13.420Z,100.00
2023-01-22T19:04:40.297Z,100.00
2023-01-22T19:07:07.075Z,100.00
2023-01-22T19:09:40.803Z,100.00
2023-01-22T19:12:20.432Z,100.00
2023-01-22T19:18:15.748Z,100.00
2023-01-22T19:20:43.065Z,100.00
2023-01-22T19:23:10.430Z,100.00
2023-01-22T19:25:38.833Z,100.00
2023-01-22T19:28:06.150Z,100.00
2023-01-22T19:30:37.432Z,100.00
2023-01-22T19:33:04.475Z,100.00
2023-01-22T19:35:31.599Z,100.00
2023-01-22T19:37:58.416Z,100.00
2023-01-22T19:40:25.382Z,100.00
2023-01-22T19:42:52.428Z,100.00
2023-01-22T19:45:19.718Z,100.00
2023-01-22T19:47:46.744Z,100.00
2023-01-22T19:50:13.739Z,100.00
2023-01-22T19:52:40.656Z,100.00
2023-01-22T19:55:08.044Z,100.00
2023-01-22T19:57:35.159Z,100.00
2023-01-22T20:00:01.965Z,100.00
2023-01-22T20:02:29.263Z,100.00
2023-01-22T20:04:56.896Z,100.00
2023-01-22T20:07:27.713Z,100.00
2023-01-22T20:09:55.283Z,100.00
2023-01-22T20:12:22.539Z,100.00
2023-01-22T20:14:51.849Z,100.00
2023-01-22T20:17:18.896Z,100.00
2023-01-22T20:19:46.056Z,100.00
2023-01-22T20:22:13.077Z,100.00
2023-01-22T20:24:41.157Z,100.00
2023-01-22T20:27:09.594Z,100.00
2023-01-22T20:29:41.955Z,100.00
2023-01-22T20:32:11.520Z,100.00
2023-01-22T20:34:57.023Z,100.00
2023-01-22T20:37:28.014Z,100.00
2023-01-22T20:39:56.257Z,100.00
2023-01-22T20:42:23.591Z,100.00
2023-01-22T20:44:59.770Z,100.00
2023-01-22T20:47:50.713Z,100.00
2023-01-22T20:50:21.730Z,100.00
2023-01-22T20:52:50.325Z,100.00
2023-01-22T20:55:26.831Z,100.00
2023-01-22T20:58:28.997Z,100.00
2023-01-22T21:00:47.006Z,100.00
2023-01-22T21:03:13.924Z,100.00
2023-01-22T21:05:50.489Z,100.00
2023-01-22T21:08:27.634Z,100.00
2023-01-22T21:11:13.326Z,100.00
2023-01-22T21:16:52.159Z,100.00
2023-01-22T21:19:26.884Z,100.00
2023-01-22T21:22:01.758Z,100.00
2023-01-22T21:25:39.927Z,100.00
2023-01-22T22:20:37.473Z,100.00
2023-01-22T22:23:07.617Z,100.00
2023-01-22T22:25:34.836Z,100.00
2023-01-22T22:28:25.081Z,100.00
2023-01-22T22:30:52.983Z,100.00
2023-01-22T22:33:20.400Z,100.00
2023-01-22T22:35:47.845Z,100.00
2023-01-22T22:38:37.293Z,100.00
2023-01-22T22:41:07.004Z,100.00
2023-01-22T22:43:39.151Z,100.00
2023-01-22T22:46:09.417Z,100.00
2023-01-22T22:49:00.766Z,100.00
2023-01-22T22:51:34.196Z,100.00
2023-01-22T22:54:33.149Z,100.00
2023-01-22T22:57:00.426Z,100.00
2023-01-22T22:59:27.242Z,100.00
2023-01-22T23:02:07.425Z,100.00
2023-01-22T23:04:38.943Z,100.00
2023-01-22T23:07:05.948Z,100.00
2023-01-22T23:09:32.908Z,100.00
2023-01-22T23:11:59.787Z,100.00
2023-01-22T23:14:26.991Z,100.00
2023-01-22T23:16:57.032Z,100.00
2023-01-22T23:19:43.628Z,100.00
2023-01-22T23:24:58.515Z,100.00
2023-01-22T23:27:25.323Z,100.00
2023-01-22T23:29:53.937Z,100.00
2023-01-22T23:32:26.566Z,100.00
2023-01-22T23:34:53.627Z,100.00
2023-01-22T23:37:22.638Z,100.00
2023-01-22T23:39:51.519Z,100.00
2023-01-22T23:42:19.003Z,100.00
2023-01-22T23:44:45.883Z,100.00
2023-01-22T23:47:12.978Z,100.00
2023-01-22T23:49:39.945Z,100.00
2023-01-22T23:52:06.797Z,100.00
2023-01-22T23:54:33.904Z,100.00
2023-01-22T23:57:07.144Z,100.00
2023-01-22T23:59:34.916Z,100.00
